sensor_id;sensor_type;location;lat;lon;timestamp;P1;durP1;ratioP1;P2;durP2;ratioP2
78783;SDS011;68127;51.050;14.084;2023-05-20T00:00:20;20.10;;;13.43;;
78783;SDS011;68127;51.050;14.084;2023-05-20T00:02:45;22.85;;;14.10;;
78783;SDS011;68127;51.050;14.084;2023-05-20T00:05:10;22.40;;;13.35;;
78783;SDS011;68127;51.050;14.084;2023-05-20T00:07:36;23.67;;;14.40;;
78783;SDS011;68127;51.050;14.084;2023-05-20T00:10:01;22.00;;;14.43;;
78783;SDS011;68127;51.050;14.084;2023-05-20T00:12:26;23.20;;;13.43;;
78783;SDS011;68127;51.050;14.084;2023-05-20T00:14:51;19.08;;;12.68;;
78783;SDS011;68127;51.050;14.084;2023-05-20T00:17:17;23.23;;;13.52;;
78783;SDS011;68127;51.050;14.084;2023-05-20T00:19:43;20.63;;;13.48;;
78783;SDS011;68127;51.050;14.084;2023-05-20T00:22:08;21.73;;;13.23;;
78783;SDS011;68127;51.050;14.084;2023-05-20T00:24:33;21.73;;;13.57;;
78783;SDS011;68127;51.050;14.084;2023-05-20T00:26:58;20.25;;;13.48;;
78783;SDS011;68127;51.050;14.084;2023-05-20T00:29:24;24.02;;;14.48;;
78783;SDS011;68127;51.050;14.084;2023-05-20T00:31:49;22.30;;;13.70;;
78783;SDS011;68127;51.050;14.084;2023-05-20T00:34:14;21.30;;;14.15;;
78783;SDS011;68127;51.050;14.084;2023-05-20T00:36:40;22.95;;;15.15;;
78783;SDS011;68127;51.050;14.084;2023-05-20T00:39:05;25.00;;;14.27;;
78783;SDS011;68127;51.050;14.084;2023-05-20T00:41:31;22.77;;;14.07;;
78783;SDS011;68127;51.050;14.084;2023-05-20T00:43:56;23.52;;;14.20;;
78783;SDS011;68127;51.050;14.084;2023-05-20T00:46:22;22.95;;;13.52;;
78783;SDS011;68127;51.050;14.084;2023-05-20T00:48:47;21.55;;;13.55;;
78783;SDS011;68127;51.050;14.084;2023-05-20T00:51:14;21.70;;;13.40;;
78783;SDS011;68127;51.050;14.084;2023-05-20T00:53:39;21.40;;;13.18;;
78783;SDS011;68127;51.050;14.084;2023-05-20T00:56:06;20.38;;;13.25;;
78783;SDS011;68127;51.050;14.084;2023-05-20T00:58:33;19.80;;;13.93;;
78783;SDS011;68127;51.050;14.084;2023-05-20T01:01:00;23.30;;;13.70;;
78783;SDS011;68127;51.050;14.084;2023-05-20T01:03:25;20.83;;;13.98;;
78783;SDS011;68127;51.050;14.084;2023-05-20T01:05:51;19.92;;;14.07;;
78783;SDS011;68127;51.050;14.084;2023-05-20T01:08:16;20.08;;;13.18;;
78783;SDS011;68127;51.050;14.084;2023-05-20T01:10:42;22.58;;;14.32;;
78783;SDS011;68127;51.050;14.084;2023-05-20T01:13:10;18.65;;;12.70;;
78783;SDS011;68127;51.050;14.084;2023-05-20T01:15:40;22.15;;;13.30;;
78783;SDS011;68127;51.050;14.084;2023-05-20T01:18:06;23.52;;;13.55;;
78783;SDS011;68127;51.050;14.084;2023-05-20T01:20:34;21.63;;;14.32;;
78783;SDS011;68127;51.050;14.084;2023-05-20T01:23:00;20.48;;;13.57;;
78783;SDS011;68127;51.050;14.084;2023-05-20T01:25:25;21.13;;;13.75;;
78783;SDS011;68127;51.050;14.084;2023-05-20T01:27:51;21.00;;;13.75;;
78783;SDS011;68127;51.050;14.084;2023-05-20T01:30:17;21.20;;;14.10;;
78783;SDS011;68127;51.050;14.084;2023-05-20T01:32:43;25.30;;;13.43;;
78783;SDS011;68127;51.050;14.084;2023-05-20T01:35:15;19.40;;;12.53;;
78783;SDS011;68127;51.050;14.084;2023-05-20T01:37:40;20.02;;;12.57;;
78783;SDS011;68127;51.050;14.084;2023-05-20T01:40:15;22.10;;;13.82;;
78783;SDS011;68127;51.050;14.084;2023-05-20T01:42:42;20.27;;;13.55;;
78783;SDS011;68127;51.050;14.084;2023-05-20T01:45:09;21.75;;;13.63;;
78783;SDS011;68127;51.050;14.084;2023-05-20T01:47:34;20.95;;;14.00;;
78783;SDS011;68127;51.050;14.084;2023-05-20T01:50:00;23.45;;;14.18;;
78783;SDS011;68127;51.050;14.084;2023-05-20T01:52:25;20.13;;;13.15;;
78783;SDS011;68127;51.050;14.084;2023-05-20T01:54:50;20.70;;;14.02;;
78783;SDS011;68127;51.050;14.084;2023-05-20T01:57:17;22.00;;;13.85;;
78783;SDS011;68127;51.050;14.084;2023-05-20T01:59:42;20.00;;;13.95;;
78783;SDS011;68127;51.050;14.084;2023-05-20T02:02:08;25.67;;;15.15;;
78783;SDS011;68127;51.050;14.084;2023-05-20T02:04:34;23.05;;;13.80;;
78783;SDS011;68127;51.050;14.084;2023-05-20T02:06:59;24.58;;;14.43;;
78783;SDS011;68127;51.050;14.084;2023-05-20T02:09:24;23.48;;;14.68;;
78783;SDS011;68127;51.050;14.084;2023-05-20T02:11:50;23.50;;;14.20;;
78783;SDS011;68127;51.050;14.084;2023-05-20T02:14:15;21.45;;;13.77;;
78783;SDS011;68127;51.050;14.084;2023-05-20T02:16:40;26.90;;;15.20;;
78783;SDS011;68127;51.050;14.084;2023-05-20T02:19:05;24.30;;;15.25;;
78783;SDS011;68127;51.050;14.084;2023-05-20T02:21:36;24.35;;;14.90;;
78783;SDS011;68127;51.050;14.084;2023-05-20T02:24:01;24.83;;;15.95;;
78783;SDS011;68127;51.050;14.084;2023-05-20T02:26:27;26.50;;;15.20;;
78783;SDS011;68127;51.050;14.084;2023-05-20T02:28:52;25.77;;;14.48;;
78783;SDS011;68127;51.050;14.084;2023-05-20T02:31:18;25.70;;;15.88;;
78783;SDS011;68127;51.050;14.084;2023-05-20T02:33:43;23.52;;;14.10;;
78783;SDS011;68127;51.050;14.084;2023-05-20T02:36:09;26.02;;;15.32;;
78783;SDS011;68127;51.050;14.084;2023-05-20T02:38:34;24.83;;;16.25;;
78783;SDS011;68127;51.050;14.084;2023-05-20T02:40:59;26.08;;;15.85;;
78783;SDS011;68127;51.050;14.084;2023-05-20T02:43:25;26.48;;;16.05;;
78783;SDS011;68127;51.050;14.084;2023-05-20T02:45:50;25.00;;;15.35;;
78783;SDS011;68127;51.050;14.084;2023-05-20T02:48:15;24.52;;;15.15;;
78783;SDS011;68127;51.050;14.084;2023-05-20T02:50:41;26.70;;;16.30;;
78783;SDS011;68127;51.050;14.084;2023-05-20T02:53:06;24.60;;;15.48;;
78783;SDS011;68127;51.050;14.084;2023-05-20T02:55:35;21.83;;;14.90;;
78783;SDS011;68127;51.050;14.084;2023-05-20T02:58:00;25.27;;;14.40;;
78783;SDS011;68127;51.050;14.084;2023-05-20T03:00:26;25.65;;;15.68;;
78783;SDS011;68127;51.050;14.084;2023-05-20T03:02:54;25.38;;;15.82;;
78783;SDS011;68127;51.050;14.084;2023-05-20T03:05:19;25.58;;;15.60;;
78783;SDS011;68127;51.050;14.084;2023-05-20T03:07:45;24.60;;;15.60;;
78783;SDS011;68127;51.050;14.084;2023-05-20T03:10:10;25.20;;;15.95;;
78783;SDS011;68127;51.050;14.084;2023-05-20T03:12:35;23.85;;;14.63;;
78783;SDS011;68127;51.050;14.084;2023-05-20T03:15:01;23.23;;;14.60;;
78783;SDS011;68127;51.050;14.084;2023-05-20T03:17:26;26.35;;;16.55;;
78783;SDS011;68127;51.050;14.084;2023-05-20T03:19:51;25.90;;;15.63;;
78783;SDS011;68127;51.050;14.084;2023-05-20T03:22:16;24.65;;;15.05;;
78783;SDS011;68127;51.050;14.084;2023-05-20T03:24:42;25.45;;;15.45;;
78783;SDS011;68127;51.050;14.084;2023-05-20T03:27:08;26.60;;;16.55;;
78783;SDS011;68127;51.050;14.084;2023-05-20T03:29:33;26.10;;;16.65;;
78783;SDS011;68127;51.050;14.084;2023-05-20T03:31:58;25.48;;;15.23;;
78783;SDS011;68127;51.050;14.084;2023-05-20T03:34:24;24.45;;;15.50;;
78783;SDS011;68127;51.050;14.084;2023-05-20T03:36:52;29.15;;;17.33;;
78783;SDS011;68127;51.050;14.084;2023-05-20T03:39:17;27.15;;;15.85;;
78783;SDS011;68127;51.050;14.084;2023-05-20T03:41:42;27.13;;;16.27;;
78783;SDS011;68127;51.050;14.084;2023-05-20T03:44:07;26.65;;;16.92;;
78783;SDS011;68127;51.050;14.084;2023-05-20T03:46:33;26.63;;;16.27;;
78783;SDS011;68127;51.050;14.084;2023-05-20T03:48:58;26.10;;;15.95;;
78783;SDS011;68127;51.050;14.084;2023-05-20T03:51:25;29.80;;;17.27;;
78783;SDS011;68127;51.050;14.084;2023-05-20T03:53:51;29.40;;;17.35;;
78783;SDS011;68127;51.050;14.084;2023-05-20T03:56:16;26.80;;;16.67;;
78783;SDS011;68127;51.050;14.084;2023-05-20T03:58:41;26.33;;;17.15;;
78783;SDS011;68127;51.050;14.084;2023-05-20T04:01:06;28.23;;;17.45;;
78783;SDS011;68127;51.050;14.084;2023-05-20T04:03:32;24.85;;;15.98;;
78783;SDS011;68127;51.050;14.084;2023-05-20T04:05:57;27.70;;;16.98;;
78783;SDS011;68127;51.050;14.084;2023-05-20T04:08:23;28.05;;;16.70;;
78783;SDS011;68127;51.050;14.084;2023-05-20T04:10:50;26.13;;;16.25;;
78783;SDS011;68127;51.050;14.084;2023-05-20T04:13:15;27.33;;;16.85;;
78783;SDS011;68127;51.050;14.084;2023-05-20T04:15:41;25.33;;;16.48;;
78783;SDS011;68127;51.050;14.084;2023-05-20T04:18:06;27.88;;;16.90;;
78783;SDS011;68127;51.050;14.084;2023-05-20T04:20:32;26.60;;;16.50;;
78783;SDS011;68127;51.050;14.084;2023-05-20T04:22:57;29.73;;;17.58;;
78783;SDS011;68127;51.050;14.084;2023-05-20T04:25:22;29.08;;;17.63;;
78783;SDS011;68127;51.050;14.084;2023-05-20T04:27:48;27.00;;;16.52;;
78783;SDS011;68127;51.050;14.084;2023-05-20T04:30:13;26.60;;;17.00;;
78783;SDS011;68127;51.050;14.084;2023-05-20T04:32:40;28.38;;;17.08;;
78783;SDS011;68127;51.050;14.084;2023-05-20T04:35:06;26.13;;;16.27;;
78783;SDS011;68127;51.050;14.084;2023-05-20T04:37:35;25.48;;;16.90;;
78783;SDS011;68127;51.050;14.084;2023-05-20T04:40:01;28.55;;;17.90;;
78783;SDS011;68127;51.050;14.084;2023-05-20T04:42:27;26.27;;;16.27;;
78783;SDS011;68127;51.050;14.084;2023-05-20T04:44:53;24.60;;;15.70;;
78783;SDS011;68127;51.050;14.084;2023-05-20T04:47:19;26.58;;;15.88;;
78783;SDS011;68127;51.050;14.084;2023-05-20T04:49:44;27.50;;;17.13;;
78783;SDS011;68127;51.050;14.084;2023-05-20T04:52:09;28.85;;;16.65;;
78783;SDS011;68127;51.050;14.084;2023-05-20T04:54:35;21.42;;;14.15;;
78783;SDS011;68127;51.050;14.084;2023-05-20T04:57:00;28.05;;;16.23;;
78783;SDS011;68127;51.050;14.084;2023-05-20T04:59:25;28.00;;;16.50;;
78783;SDS011;68127;51.050;14.084;2023-05-20T05:01:50;25.95;;;17.15;;
78783;SDS011;68127;51.050;14.084;2023-05-20T05:04:16;26.75;;;16.80;;
78783;SDS011;68127;51.050;14.084;2023-05-20T05:06:41;27.92;;;17.65;;
78783;SDS011;68127;51.050;14.084;2023-05-20T05:09:06;26.52;;;17.33;;
78783;SDS011;68127;51.050;14.084;2023-05-20T05:11:32;28.63;;;18.27;;
78783;SDS011;68127;51.050;14.084;2023-05-20T05:13:57;30.00;;;17.52;;
78783;SDS011;68127;51.050;14.084;2023-05-20T05:16:22;24.30;;;16.35;;
78783;SDS011;68127;51.050;14.084;2023-05-20T05:18:48;27.85;;;16.85;;
78783;SDS011;68127;51.050;14.084;2023-05-20T05:21:16;24.63;;;16.02;;
78783;SDS011;68127;51.050;14.084;2023-05-20T05:23:43;26.80;;;16.85;;
78783;SDS011;68127;51.050;14.084;2023-05-20T05:26:08;26.45;;;17.40;;
78783;SDS011;68127;51.050;14.084;2023-05-20T05:28:33;23.58;;;16.00;;
78783;SDS011;68127;51.050;14.084;2023-05-20T05:30:58;25.75;;;16.85;;
78783;SDS011;68127;51.050;14.084;2023-05-20T05:33:26;24.17;;;15.75;;
78783;SDS011;68127;51.050;14.084;2023-05-20T05:35:51;28.98;;;17.55;;
78783;SDS011;68127;51.050;14.084;2023-05-20T05:38:16;25.83;;;15.95;;
78783;SDS011;68127;51.050;14.084;2023-05-20T05:40:42;26.45;;;16.67;;
78783;SDS011;68127;51.050;14.084;2023-05-20T05:43:07;23.77;;;15.25;;
78783;SDS011;68127;51.050;14.084;2023-05-20T05:45:32;23.05;;;15.48;;
78783;SDS011;68127;51.050;14.084;2023-05-20T05:47:57;24.38;;;15.93;;
78783;SDS011;68127;51.050;14.084;2023-05-20T05:50:23;24.35;;;16.88;;
78783;SDS011;68127;51.050;14.084;2023-05-20T05:52:48;25.15;;;16.85;;
78783;SDS011;68127;51.050;14.084;2023-05-20T05:55:13;24.50;;;15.27;;
78783;SDS011;68127;51.050;14.084;2023-05-20T05:57:38;22.90;;;16.00;;
78783;SDS011;68127;51.050;14.084;2023-05-20T06:00:04;27.30;;;16.65;;
78783;SDS011;68127;51.050;14.084;2023-05-20T06:02:30;27.15;;;15.95;;
78783;SDS011;68127;51.050;14.084;2023-05-20T06:04:59;24.05;;;16.55;;
78783;SDS011;68127;51.050;14.084;2023-05-20T06:07:25;25.48;;;16.40;;
78783;SDS011;68127;51.050;14.084;2023-05-20T06:09:51;21.67;;;14.27;;
78783;SDS011;68127;51.050;14.084;2023-05-20T06:12:16;24.65;;;16.02;;
78783;SDS011;68127;51.050;14.084;2023-05-20T06:14:41;28.10;;;15.52;;
78783;SDS011;68127;51.050;14.084;2023-05-20T06:17:06;22.10;;;15.23;;
78783;SDS011;68127;51.050;14.084;2023-05-20T06:19:32;21.70;;;15.02;;
78783;SDS011;68127;51.050;14.084;2023-05-20T06:21:57;20.58;;;14.43;;
78783;SDS011;68127;51.050;14.084;2023-05-20T06:24:22;21.77;;;14.63;;
78783;SDS011;68127;51.050;14.084;2023-05-20T06:26:48;23.85;;;16.30;;
78783;SDS011;68127;51.050;14.084;2023-05-20T06:29:14;24.35;;;14.90;;
78783;SDS011;68127;51.050;14.084;2023-05-20T06:31:39;24.63;;;15.00;;
78783;SDS011;68127;51.050;14.084;2023-05-20T06:34:11;24.73;;;15.95;;
78783;SDS011;68127;51.050;14.084;2023-05-20T06:36:36;29.13;;;16.52;;
78783;SDS011;68127;51.050;14.084;2023-05-20T06:39:02;20.38;;;13.68;;
78783;SDS011;68127;51.050;14.084;2023-05-20T06:41:28;20.35;;;14.40;;
78783;SDS011;68127;51.050;14.084;2023-05-20T06:43:53;20.73;;;15.55;;
78783;SDS011;68127;51.050;14.084;2023-05-20T06:46:18;23.02;;;14.98;;
78783;SDS011;68127;51.050;14.084;2023-05-20T06:48:43;24.23;;;15.45;;
78783;SDS011;68127;51.050;14.084;2023-05-20T06:51:09;23.58;;;15.00;;
78783;SDS011;68127;51.050;14.084;2023-05-20T06:53:34;23.15;;;14.52;;
78783;SDS011;68127;51.050;14.084;2023-05-20T06:56:00;19.42;;;13.98;;
78783;SDS011;68127;51.050;14.084;2023-05-20T06:58:25;22.88;;;14.07;;
78783;SDS011;68127;51.050;14.084;2023-05-20T07:00:52;18.92;;;13.95;;
78783;SDS011;68127;51.050;14.084;2023-05-20T07:03:17;20.52;;;14.13;;
78783;SDS011;68127;51.050;14.084;2023-05-20T07:05:43;20.77;;;15.02;;
78783;SDS011;68127;51.050;14.084;2023-05-20T07:08:08;23.70;;;15.35;;
78783;SDS011;68127;51.050;14.084;2023-05-20T07:10:33;21.63;;;15.20;;
78783;SDS011;68127;51.050;14.084;2023-05-20T07:12:59;19.67;;;14.52;;
78783;SDS011;68127;51.050;14.084;2023-05-20T07:15:24;20.85;;;14.65;;
78783;SDS011;68127;51.050;14.084;2023-05-20T07:17:49;20.52;;;14.15;;
78783;SDS011;68127;51.050;14.084;2023-05-20T07:20:15;23.17;;;14.80;;
78783;SDS011;68127;51.050;14.084;2023-05-20T07:22:40;22.35;;;14.68;;
78783;SDS011;68127;51.050;14.084;2023-05-20T07:25:06;21.50;;;13.85;;
78783;SDS011;68127;51.050;14.084;2023-05-20T07:27:32;22.00;;;13.57;;
78783;SDS011;68127;51.050;14.084;2023-05-20T07:29:57;19.90;;;13.95;;
78783;SDS011;68127;51.050;14.084;2023-05-20T07:32:22;22.15;;;14.68;;
78783;SDS011;68127;51.050;14.084;2023-05-20T07:34:47;23.45;;;13.60;;
78783;SDS011;68127;51.050;14.084;2023-05-20T07:37:13;21.33;;;14.25;;
78783;SDS011;68127;51.050;14.084;2023-05-20T07:39:38;18.85;;;13.32;;
78783;SDS011;68127;51.050;14.084;2023-05-20T07:42:04;22.30;;;14.15;;
78783;SDS011;68127;51.050;14.084;2023-05-20T07:44:29;20.60;;;13.38;;
78783;SDS011;68127;51.050;14.084;2023-05-20T07:46:55;20.60;;;13.18;;
78783;SDS011;68127;51.050;14.084;2023-05-20T07:49:20;21.08;;;13.52;;
78783;SDS011;68127;51.050;14.084;2023-05-20T07:51:45;20.80;;;12.70;;
78783;SDS011;68127;51.050;14.084;2023-05-20T07:54:11;20.90;;;14.23;;
78783;SDS011;68127;51.050;14.084;2023-05-20T07:56:36;19.83;;;13.63;;
78783;SDS011;68127;51.050;14.084;2023-05-20T07:59:01;19.27;;;12.95;;
78783;SDS011;68127;51.050;14.084;2023-05-20T08:01:27;20.02;;;13.15;;
78783;SDS011;68127;51.050;14.084;2023-05-20T08:03:53;20.67;;;13.57;;
78783;SDS011;68127;51.050;14.084;2023-05-20T08:06:18;25.80;;;14.52;;
78783;SDS011;68127;51.050;14.084;2023-05-20T08:08:48;20.52;;;13.70;;
78783;SDS011;68127;51.050;14.084;2023-05-20T08:11:13;19.92;;;13.40;;
78783;SDS011;68127;51.050;14.084;2023-05-20T08:13:42;21.70;;;13.98;;
78783;SDS011;68127;51.050;14.084;2023-05-20T08:16:07;20.02;;;13.00;;
78783;SDS011;68127;51.050;14.084;2023-05-20T08:18:33;21.35;;;13.23;;
78783;SDS011;68127;51.050;14.084;2023-05-20T08:21:00;20.58;;;13.43;;
78783;SDS011;68127;51.050;14.084;2023-05-20T08:23:25;21.23;;;13.38;;
78783;SDS011;68127;51.050;14.084;2023-05-20T08:25:51;20.67;;;13.65;;
78783;SDS011;68127;51.050;14.084;2023-05-20T08:28:16;21.77;;;13.73;;
78783;SDS011;68127;51.050;14.084;2023-05-20T08:30:41;20.13;;;13.38;;
78783;SDS011;68127;51.050;14.084;2023-05-20T08:33:07;21.15;;;13.95;;
78783;SDS011;68127;51.050;14.084;2023-05-20T08:35:32;21.85;;;14.40;;
78783;SDS011;68127;51.050;14.084;2023-05-20T08:37:57;23.50;;;15.18;;
78783;SDS011;68127;51.050;14.084;2023-05-20T08:40:23;22.77;;;14.98;;
78783;SDS011;68127;51.050;14.084;2023-05-20T08:42:49;21.45;;;12.80;;
78783;SDS011;68127;51.050;14.084;2023-05-20T08:45:17;22.95;;;14.65;;
78783;SDS011;68127;51.050;14.084;2023-05-20T08:47:43;20.58;;;13.95;;
78783;SDS011;68127;51.050;14.084;2023-05-20T08:50:09;22.23;;;15.55;;
78783;SDS011;68127;51.050;14.084;2023-05-20T08:52:44;23.90;;;14.77;;
78783;SDS011;68127;51.050;14.084;2023-05-20T08:55:13;23.88;;;14.40;;
78783;SDS011;68127;51.050;14.084;2023-05-20T08:57:40;24.25;;;15.55;;
78783;SDS011;68127;51.050;14.084;2023-05-20T09:00:06;24.38;;;15.15;;
78783;SDS011;68127;51.050;14.084;2023-05-20T09:02:37;23.38;;;15.18;;
78783;SDS011;68127;51.050;14.084;2023-05-20T09:05:03;22.67;;;15.18;;
78783;SDS011;68127;51.050;14.084;2023-05-20T09:07:29;20.65;;;14.73;;
78783;SDS011;68127;51.050;14.084;2023-05-20T09:09:55;21.80;;;13.77;;
78783;SDS011;68127;51.050;14.084;2023-05-20T09:12:20;19.65;;;14.65;;
78783;SDS011;68127;51.050;14.084;2023-05-20T09:14:46;23.50;;;15.30;;
78783;SDS011;68127;51.050;14.084;2023-05-20T09:17:11;23.38;;;15.15;;
78783;SDS011;68127;51.050;14.084;2023-05-20T09:19:37;23.80;;;14.48;;
78783;SDS011;68127;51.050;14.084;2023-05-20T09:22:02;22.40;;;15.65;;
78783;SDS011;68127;51.050;14.084;2023-05-20T09:24:31;22.38;;;14.88;;
78783;SDS011;68127;51.050;14.084;2023-05-20T09:26:57;25.65;;;15.55;;
78783;SDS011;68127;51.050;14.084;2023-05-20T09:29:22;21.52;;;15.10;;
78783;SDS011;68127;51.050;14.084;2023-05-20T09:31:48;23.33;;;14.68;;
78783;SDS011;68127;51.050;14.084;2023-05-20T09:34:14;21.58;;;14.05;;
78783;SDS011;68127;51.050;14.084;2023-05-20T09:36:41;20.45;;;13.48;;
78783;SDS011;68127;51.050;14.084;2023-05-20T09:39:07;27.98;;;16.20;;
78783;SDS011;68127;51.050;14.084;2023-05-20T09:41:41;23.45;;;14.30;;
78783;SDS011;68127;51.050;14.084;2023-05-20T09:44:12;21.70;;;13.80;;
78783;SDS011;68127;51.050;14.084;2023-05-20T09:46:40;22.60;;;14.20;;
78783;SDS011;68127;51.050;14.084;2023-05-20T09:49:05;22.40;;;14.15;;
78783;SDS011;68127;51.050;14.084;2023-05-20T09:51:32;21.35;;;13.55;;
78783;SDS011;68127;51.050;14.084;2023-05-20T09:53:58;20.85;;;13.73;;
78783;SDS011;68127;51.050;14.084;2023-05-20T09:56:24;21.58;;;13.90;;
78783;SDS011;68127;51.050;14.084;2023-05-20T09:58:49;22.85;;;14.18;;
78783;SDS011;68127;51.050;14.084;2023-05-20T10:01:15;20.95;;;14.05;;
78783;SDS011;68127;51.050;14.084;2023-05-20T10:03:40;22.23;;;14.07;;
78783;SDS011;68127;51.050;14.084;2023-05-20T10:08:41;23.45;;;14.55;;
78783;SDS011;68127;51.050;14.084;2023-05-20T10:14:07;19.20;;;14.13;;
78783;SDS011;68127;51.050;14.084;2023-05-20T10:16:53;19.52;;;13.45;;
78783;SDS011;68127;51.050;14.084;2023-05-20T10:19:38;22.58;;;13.88;;
78783;SDS011;68127;51.050;14.084;2023-05-20T10:22:08;20.15;;;14.35;;
78783;SDS011;68127;51.050;14.084;2023-05-20T10:24:35;17.73;;;12.73;;
78783;SDS011;68127;51.050;14.084;2023-05-20T10:27:02;19.73;;;13.02;;
78783;SDS011;68127;51.050;14.084;2023-05-20T10:29:44;18.88;;;12.32;;
78783;SDS011;68127;51.050;14.084;2023-05-20T10:32:23;21.17;;;13.15;;
78783;SDS011;68127;51.050;14.084;2023-05-20T10:34:52;21.58;;;12.93;;
78783;SDS011;68127;51.050;14.084;2023-05-20T10:37:32;20.67;;;12.55;;
78783;SDS011;68127;51.050;14.084;2023-05-20T10:40:10;19.67;;;12.43;;
78783;SDS011;68127;51.050;14.084;2023-05-20T10:42:36;18.85;;;13.20;;
78783;SDS011;68127;51.050;14.084;2023-05-20T10:45:01;21.20;;;13.50;;
78783;SDS011;68127;51.050;14.084;2023-05-20T10:47:27;18.95;;;12.98;;
78783;SDS011;68127;51.050;14.084;2023-05-20T10:49:53;18.67;;;13.15;;
78783;SDS011;68127;51.050;14.084;2023-05-20T10:52:18;20.23;;;13.60;;
78783;SDS011;68127;51.050;14.084;2023-05-20T10:55:02;17.42;;;12.15;;
78783;SDS011;68127;51.050;14.084;2023-05-20T10:57:28;20.92;;;13.10;;
78783;SDS011;68127;51.050;14.084;2023-05-20T10:59:54;19.08;;;13.18;;
78783;SDS011;68127;51.050;14.084;2023-05-20T11:02:20;19.65;;;12.93;;
78783;SDS011;68127;51.050;14.084;2023-05-20T11:04:50;20.35;;;12.95;;
78783;SDS011;68127;51.050;14.084;2023-05-20T11:07:25;19.45;;;12.23;;
78783;SDS011;68127;51.050;14.084;2023-05-20T11:09:52;20.52;;;13.10;;
78783;SDS011;68127;51.050;14.084;2023-05-20T11:12:17;18.15;;;12.90;;
78783;SDS011;68127;51.050;14.084;2023-05-20T11:14:42;19.85;;;12.25;;
78783;SDS011;68127;51.050;14.084;2023-05-20T11:17:08;18.95;;;12.80;;
78783;SDS011;68127;51.050;14.084;2023-05-20T11:19:33;21.70;;;12.70;;
78783;SDS011;68127;51.050;14.084;2023-05-20T11:22:01;19.35;;;13.35;;
78783;SDS011;68127;51.050;14.084;2023-05-20T11:24:27;20.20;;;13.02;;
78783;SDS011;68127;51.050;14.084;2023-05-20T11:26:53;18.13;;;12.27;;
78783;SDS011;68127;51.050;14.084;2023-05-20T11:29:18;19.83;;;13.02;;
78783;SDS011;68127;51.050;14.084;2023-05-20T11:31:46;18.20;;;12.38;;
78783;SDS011;68127;51.050;14.084;2023-05-20T11:34:12;18.00;;;12.70;;
78783;SDS011;68127;51.050;14.084;2023-05-20T11:36:39;15.57;;;11.25;;
78783;SDS011;68127;51.050;14.084;2023-05-20T11:39:08;20.27;;;12.98;;
78783;SDS011;68127;51.050;14.084;2023-05-20T11:41:35;18.45;;;12.30;;
78783;SDS011;68127;51.050;14.084;2023-05-20T11:44:00;19.33;;;13.13;;
78783;SDS011;68127;51.050;14.084;2023-05-20T11:46:25;17.13;;;12.00;;
78783;SDS011;68127;51.050;14.084;2023-05-20T11:48:54;17.65;;;11.02;;
78783;SDS011;68127;51.050;14.084;2023-05-20T11:51:26;18.15;;;11.82;;
78783;SDS011;68127;51.050;14.084;2023-05-20T11:53:52;18.88;;;12.93;;
78783;SDS011;68127;51.050;14.084;2023-05-20T11:56:18;18.58;;;12.63;;
78783;SDS011;68127;51.050;14.084;2023-05-20T11:58:45;18.42;;;12.32;;
78783;SDS011;68127;51.050;14.084;2023-05-20T12:01:10;17.52;;;11.75;;
78783;SDS011;68127;51.050;14.084;2023-05-20T12:03:35;16.23;;;11.73;;
78783;SDS011;68127;51.050;14.084;2023-05-20T12:06:01;16.33;;;11.85;;
78783;SDS011;68127;51.050;14.084;2023-05-20T12:08:27;22.65;;;13.18;;
78783;SDS011;68127;51.050;14.084;2023-05-20T12:10:52;21.10;;;12.57;;
78783;SDS011;68127;51.050;14.084;2023-05-20T12:13:17;21.90;;;13.70;;
78783;SDS011;68127;51.050;14.084;2023-05-20T12:15:43;18.13;;;12.88;;
78783;SDS011;68127;51.050;14.084;2023-05-20T12:18:08;23.63;;;13.13;;
78783;SDS011;68127;51.050;14.084;2023-05-20T12:20:34;19.13;;;12.98;;
78783;SDS011;68127;51.050;14.084;2023-05-20T12:23:00;16.23;;;11.57;;
78783;SDS011;68127;51.050;14.084;2023-05-20T12:25:25;16.58;;;12.38;;
78783;SDS011;68127;51.050;14.084;2023-05-20T12:27:51;18.80;;;12.73;;
78783;SDS011;68127;51.050;14.084;2023-05-20T12:30:17;16.15;;;12.23;;
78783;SDS011;68127;51.050;14.084;2023-05-20T12:32:43;17.90;;;12.07;;
78783;SDS011;68127;51.050;14.084;2023-05-20T12:35:09;18.67;;;13.38;;
78783;SDS011;68127;51.050;14.084;2023-05-20T12:37:36;18.45;;;13.02;;
78783;SDS011;68127;51.050;14.084;2023-05-20T12:40:02;16.73;;;12.18;;
78783;SDS011;68127;51.050;14.084;2023-05-20T12:42:32;17.60;;;12.18;;
78783;SDS011;68127;51.050;14.084;2023-05-20T12:45:04;18.13;;;12.27;;
78783;SDS011;68127;51.050;14.084;2023-05-20T12:47:30;16.83;;;11.43;;
78783;SDS011;68127;51.050;14.084;2023-05-20T12:49:56;15.20;;;11.57;;
78783;SDS011;68127;51.050;14.084;2023-05-20T12:52:21;16.40;;;11.35;;
78783;SDS011;68127;51.050;14.084;2023-05-20T12:54:46;17.02;;;11.30;;
78783;SDS011;68127;51.050;14.084;2023-05-20T12:57:12;16.52;;;11.20;;
78783;SDS011;68127;51.050;14.084;2023-05-20T12:59:37;15.98;;;11.15;;
78783;SDS011;68127;51.050;14.084;2023-05-20T13:02:02;15.32;;;11.20;;
78783;SDS011;68127;51.050;14.084;2023-05-20T13:04:27;16.25;;;11.18;;
78783;SDS011;68127;51.050;14.084;2023-05-20T13:06:53;13.93;;;10.80;;
78783;SDS011;68127;51.050;14.084;2023-05-20T13:09:18;14.35;;;10.07;;
78783;SDS011;68127;51.050;14.084;2023-05-20T13:11:43;16.35;;;10.68;;
78783;SDS011;68127;51.050;14.084;2023-05-20T13:14:09;15.25;;;10.52;;
78783;SDS011;68127;51.050;14.084;2023-05-20T13:16:34;18.98;;;11.23;;
78783;SDS011;68127;51.050;14.084;2023-05-20T13:18:59;14.90;;;10.35;;
78783;SDS011;68127;51.050;14.084;2023-05-20T13:21:25;12.23;;;10.05;;
78783;SDS011;68127;51.050;14.084;2023-05-20T13:23:50;14.27;;;10.18;;
78783;SDS011;68127;51.050;14.084;2023-05-20T13:26:15;16.48;;;10.63;;
78783;SDS011;68127;51.050;14.084;2023-05-20T13:28:41;16.25;;;10.85;;
78783;SDS011;68127;51.050;14.084;2023-05-20T13:31:06;15.57;;;10.15;;
78783;SDS011;68127;51.050;14.084;2023-05-20T13:33:31;16.08;;;10.77;;
78783;SDS011;68127;51.050;14.084;2023-05-20T13:35:57;15.68;;;10.73;;
78783;SDS011;68127;51.050;14.084;2023-05-20T13:38:22;14.13;;;10.98;;
78783;SDS011;68127;51.050;14.084;2023-05-20T13:40:47;16.60;;;11.48;;
78783;SDS011;68127;51.050;14.084;2023-05-20T13:43:13;15.05;;;11.60;;
78783;SDS011;68127;51.050;14.084;2023-05-20T13:45:39;14.88;;;11.05;;
78783;SDS011;68127;51.050;14.084;2023-05-20T13:48:04;15.73;;;11.55;;
78783;SDS011;68127;51.050;14.084;2023-05-20T13:50:29;15.90;;;10.82;;
78783;SDS011;68127;51.050;14.084;2023-05-20T13:52:55;14.48;;;10.80;;
78783;SDS011;68127;51.050;14.084;2023-05-20T13:55:20;15.60;;;11.18;;
78783;SDS011;68127;51.050;14.084;2023-05-20T13:57:45;15.60;;;11.20;;
78783;SDS011;68127;51.050;14.084;2023-05-20T14:00:11;15.10;;;10.93;;
78783;SDS011;68127;51.050;14.084;2023-05-20T14:02:37;14.88;;;10.27;;
78783;SDS011;68127;51.050;14.084;2023-05-20T14:05:02;17.00;;;11.23;;
78783;SDS011;68127;51.050;14.084;2023-05-20T14:07:28;15.57;;;10.95;;